Time;durP1;ratioP1;P1;durP2;ratioP2;P2;SDS_P1;SDS_P2;PMS_P1;PMS_P2;Temp;Humidity;BMP_temperature;BMP_pressure;BME280_temperature;BME280_humidity;BME280_pressure;Samples;Min_cycle;Max_cycle;Signal;HPM_P1;HPM_P2
2021/09/08 00:01:06;;;;;;;;;15.00;15.00;;;;;23.36;43.11;101255.09;5039633;28;47346;-74
2021/09/08 00:03:31;;;;;;;;;15.67;13.67;;;;;23.31;43.35;101249.00;5046250;28;45394;-73
2021/09/08 00:05:57;;;;;;;;;15.67;13.00;;;;;23.29;43.76;101245.47;5043544;28;52655;-73
2021/09/08 00:08:24;;;;;;;;;14.67;13.33;;;;;23.27;43.71;101250.03;5051555;28;45487;-73
2021/09/08 00:10:49;;;;;;;;;15.67;13.33;;;;;23.21;43.32;101239.47;5045620;28;47253;-74
2021/09/08 00:13:15;;;;;;;;;15.33;13.33;;;;;23.20;43.58;101243.97;5049809;28;45312;-74
2021/09/08 00:15:40;;;;;;;;;13.00;10.67;;;;;23.17;43.78;101241.41;5043096;28;49611;-74
2021/09/08 00:18:05;;;;;;;;;15.00;12.67;;;;;23.15;44.02;101234.28;5041260;28;54048;-74
2021/09/08 00:20:31;;;;;;;;;15.33;12.33;;;;;23.11;44.16;101235.31;5054494;28;45132;-73
2021/09/08 00:22:56;;;;;;;;;17.00;13.67;;;;;23.07;43.90;101236.38;5053577;28;45509;-73
2021/09/08 00:25:22;;;;;;;;;16.33;14.00;;;;;23.05;43.91;101228.34;5052293;28;45536;-73
2021/09/08 00:27:47;;;;;;;;;15.00;13.67;;;;;23.03;44.33;101221.25;5047132;28;52514;-73
2021/09/08 00:30:12;;;;;;;;;14.67;12.67;;;;;22.99;44.05;101217.78;5040841;28;46282;-73
2021/09/08 00:32:38;;;;;;;;;16.00;13.33;;;;;22.93;44.60;101201.84;5046255;28;45281;-73
2021/09/08 00:35:04;;;;;;;;;18.00;14.67;;;;;22.89;44.20;101203.75;5057374;28;45205;-73
2021/09/08 00:37:30;;;;;;;;;16.33;14.00;;;;;22.89;43.94;101208.25;5057826;28;45297;-74
2021/09/08 00:39:55;;;;;;;;;13.33;13.33;;;;;22.86;44.84;101201.13;5051152;28;49744;-73
2021/09/08 00:42:20;;;;;;;;;19.33;16.33;;;;;22.83;44.52;101200.34;5056607;28;45494;-72
2021/09/08 00:44:46;;;;;;;;;16.67;14.33;;;;;22.79;45.07;101196.88;5049460;28;49916;-74
2021/09/08 00:47:15;;;;;;;;;18.00;15.33;;;;;22.79;44.64;101190.59;5057357;28;45409;-73
2021/09/08 00:49:41;;;;;;;;;17.67;14.00;;;;;22.72;44.66;101184.56;5050573;28;47477;-73
2021/09/08 00:52:07;;;;;;;;;16.67;12.33;;;;;22.75;45.32;101189.84;5046541;28;45437;-73
2021/09/08 00:54:33;;;;;;;;;12.67;12.33;;;;;22.72;44.85;101189.94;5050743;28;45528;-74
2021/09/08 00:56:59;;;;;;;;;14.33;14.33;;;;;22.70;45.15;101186.44;5048451;28;45442;-74
2021/09/08 00:59:25;;;;;;;;;15.00;13.67;;;;;22.68;45.04;101190.97;5051946;28;45683;-73
2021/09/08 01:01:50;;;;;;;;;19.33;15.00;;;;;22.64;45.16;101186.66;5049329;28;50392;-73
2021/09/08 01:04:16;;;;;;;;;14.67;14.33;;;;;22.62;44.94;101183.09;5048944;28;56723;-74
2021/09/08 01:06:42;;;;;;;;;13.00;13.00;;;;;22.59;44.79;101186.78;5048553;28;45270;-72
2021/09/08 01:09:07;;;;;;;;;17.67;17.00;;;;;22.56;45.16;101183.31;5046559;28;57850;-73
2021/09/08 01:11:35;;;;;;;;;15.33;15.33;;;;;22.51;45.07;101179.88;5048800;28;50907;-73
2021/09/08 01:14:01;;;;;;;;;14.33;14.33;;;;;22.51;45.74;101182.59;5052579;28;46035;-74
2021/09/08 01:16:27;;;;;;;;;14.67;13.33;;;;;22.48;46.05;101181.75;5048867;28;45171;-73
2021/09/08 01:18:52;;;;;;;;;17.67;15.67;;;;;22.41;45.44;101168.53;5044545;28;46554;-72
2021/09/08 01:21:18;;;;;;;;;13.33;13.33;;;;;22.40;45.73;101167.66;5052714;28;45477;-73
2021/09/08 01:23:43;;;;;;;;;16.67;15.33;;;;;22.39;45.32;101173.97;5044735;28;51900;-73
2021/09/08 01:26:09;;;;;;;;;13.00;13.00;;;;;22.38;45.47;101176.72;5044670;28;50260;-73
2021/09/08 01:28:34;;;;;;;;;18.33;16.67;;;;;22.36;45.46;101176.75;5052173;28;46659;-74
2021/09/08 01:31:00;;;;;;;;;15.33;13.67;;;;;22.32;46.07;101167.06;5049644;28;46179;-73
2021/09/08 01:33:25;;;;;;;;;18.33;13.67;;;;;22.30;45.65;101166.19;5044649;28;45320;-73
2021/09/08 01:35:51;;;;;;;;;17.00;15.67;;;;;22.27;45.60;101169.00;5046113;28;49657;-74
2021/09/08 01:38:16;;;;;;;;;17.67;15.67;;;;;22.26;45.84;101172.59;5044069;28;46291;-73
2021/09/08 01:40:42;;;;;;;;;18.67;16.67;;;;;22.18;45.51;101150.47;5051469;28;45436;-72
2021/09/08 01:43:07;;;;;;;;;19.67;14.67;;;;;22.15;45.98;101159.50;5055191;28;45499;-72
2021/09/08 01:45:33;;;;;;;;;15.67;14.00;;;;;22.17;45.84;101162.16;5056351;28;53170;-73
2021/09/08 01:47:58;;;;;;;;;17.00;16.00;;;;;22.15;46.21;101154.13;5056144;28;46056;-73
2021/09/08 01:50:24;;;;;;;;;20.00;17.00;;;;;22.10;46.05;101152.47;5054323;28;53311;-73
2021/09/08 01:52:49;;;;;;;;;17.00;17.00;;;;;22.11;46.70;101152.47;5052796;28;47157;-74
2021/09/08 01:55:15;;;;;;;;;16.00;14.00;;;;;22.09;45.80;101154.28;5052691;28;45472;-73
2021/09/08 01:57:40;;;;;;;;;19.00;16.00;;;;;22.08;46.45;101147.16;5055118;28;47067;-72
2021/09/08 02:00:07;;;;;;;;;17.00;17.00;;;;;22.06;46.40;101150.81;5054520;28;45596;-73
2021/09/08 02:02:32;;;;;;;;;21.00;17.33;;;;;22.04;46.44;101149.97;5054071;28;45424;-74
2021/09/08 02:04:58;;;;;;;;;19.67;18.00;;;;;22.03;46.68;101137.47;5056566;28;54347;-73
2021/09/08 02:07:23;;;;;;;;;19.67;18.00;;;;;21.97;46.54;101130.47;5055277;28;46427;-73
2021/09/08 02:09:48;;;;;;;;;19.67;18.00;;;;;21.99;46.34;101128.59;5048250;28;55385;-73
2021/09/08 02:12:14;;;;;;;;;21.33;17.33;;;;;21.95;47.30;101127.84;5056186;28;45381;-73
2021/09/08 02:14:39;;;;;;;;;14.33;14.33;;;;;21.95;46.95;101124.28;5054079;28;53063;-73
2021/09/08 02:17:05;;;;;;;;;21.67;16.33;;;;;21.91;46.74;101128.84;5054088;28;58441;-73
2021/09/08 02:19:30;;;;;;;;;15.33;14.33;;;;;21.89;47.32;101125.34;5051460;28;56313;-74
2021/09/08 02:21:55;;;;;;;;;19.33;16.67;;;;;21.87;47.33;101113.75;5055159;28;47753;-73
2021/09/08 02:24:21;;;;;;;;;15.33;15.33;;;;;21.84;47.29;101113.84;5055592;28;46988;-73
2021/09/08 02:26:46;;;;;;;;;15.00;13.33;;;;;21.82;47.39;101118.38;5054006;28;57102;-74
2021/09/08 02:29:11;;;;;;;;;19.67;16.67;;;;;21.77;47.60;101108.69;5047667;28;55586;-72
2021/09/08 02:31:37;;;;;;;;;16.67;16.67;;;;;21.78;47.03;101111.34;5055184;28;46496;-73
2021/09/08 02:34:02;;;;;;;;;20.67;17.00;;;;;21.76;47.56;101106.94;5054757;28;45559;-73
2021/09/08 02:36:28;;;;;;;;;23.67;20.33;;;;;21.75;47.44;101108.75;5051232;28;61114;-72
2021/09/08 02:38:53;;;;;;;;;17.33;16.67;;;;;21.74;47.35;101100.75;5045335;28;52966;-73
2021/09/08 02:41:19;;;;;;;;;16.00;16.00;;;;;21.71;47.99;101097.22;5049342;28;45248;-73
2021/09/08 02:43:44;;;;;;;;;18.67;15.33;;;;;21.65;48.12;101083.09;5047885;28;45295;-73
2021/09/08 02:46:09;;;;;;;;;16.67;15.00;;;;;21.67;47.57;101091.97;5048875;28;59439;-73
2021/09/08 02:48:35;;;;;;;;;19.33;16.67;;;;;21.66;47.99;101090.22;5049699;28;59234;-73
2021/09/08 02:51:01;;;;;;;;;21.00;17.33;;;;;21.64;48.33;101087.59;5048442;28;45401;-73
2021/09/08 02:53:26;;;;;;;;;16.33;15.00;;;;;21.65;47.77;101093.84;5055174;28;45478;-74
2021/09/08 02:55:52;;;;;;;;;16.33;14.67;;;;;21.62;47.73;101096.59;5048954;28;45952;-74
2021/09/08 02:58:17;;;;;;;;;15.33;15.33;;;;;21.60;48.51;101091.28;5052628;28;45466;-73
2021/09/08 03:00:43;;;;;;;;;14.00;14.00;;;;;21.52;49.07;101076.31;5053605;28;54353;-74
2021/09/08 03:03:08;;;;;;;;;17.33;16.00;;;;;21.54;48.43;101077.16;5046407;28;45650;-72
2021/09/08 03:05:33;;;;;;;;;17.67;15.67;;;;;21.55;47.70;101084.28;5051366;28;55675;-74
2021/09/08 03:07:59;;;;;;;;;17.33;15.00;;;;;21.55;48.02;101081.59;5044382;28;57096;-72
2021/09/08 03:10:24;;;;;;;;;16.33;14.00;;;;;21.54;49.22;101071.78;5046719;28;50734;-72
2021/09/08 03:12:49;;;;;;;;;20.00;17.67;;;;;21.52;48.32;101061.09;5053562;28;45603;-72
2021/09/08 03:15:15;;;;;;;;;20.33;15.67;;;;;21.47;48.50;101062.16;5046357;28;54394;-74
2021/09/08 03:17:40;;;;;;;;;19.00;18.00;;;;;21.43;48.56;101056.88;5048502;28;45462;-72
2021/09/08 03:20:06;;;;;;;;;13.67;13.33;;;;;21.49;48.96;101066.56;5046609;28;45844;-73
2021/09/08 03:22:32;;;;;;;;;17.33;15.67;;;;;21.48;49.21;101063.91;5052842;28;45445;-73
2021/09/08 03:24:57;;;;;;;;;16.00;15.67;;;;;21.46;49.30;101069.31;5053054;28;46030;-73
2021/09/08 03:27:22;;;;;;;;;16.33;14.33;;;;;21.42;48.82;101060.50;5054430;28;52851;-73
2021/09/08 03:29:48;;;;;;;;;16.00;15.00;;;;;21.41;48.73;101064.13;5053787;28;50722;-73
2021/09/08 03:32:13;;;;;;;;;16.00;16.00;;;;;21.41;49.27;101057.84;5050411;28;46368;-73
2021/09/08 03:34:39;;;;;;;;;14.00;13.00;;;;;21.39;49.42;101049.81;5046377;28;60965;-74
2021/09/08 03:37:04;;;;;;;;;18.67;18.67;;;;;21.36;48.98;101052.63;5052440;28;55993;-72
2021/09/08 03:39:29;;;;;;;;;13.33;13.33;;;;;21.33;49.05;101047.31;5047488;28;45555;-72
2021/09/08 03:41:55;;;;;;;;;16.33;14.67;;;;;21.32;49.53;101047.38;5051055;28;45634;-72
2021/09/08 03:44:20;;;;;;;;;17.67;15.67;;;;;21.31;50.19;101045.63;5050550;28;62976;-73
2021/09/08 03:46:46;;;;;;;;;16.00;14.67;;;;;21.29;49.15;101040.25;5053548;28;45497;-73
2021/09/08 03:49:11;;;;;;;;;16.33;16.33;;;;;21.29;49.72;101032.19;5048032;28;51436;-72
2021/09/08 03:51:36;;;;;;;;;16.00;13.67;;;;;21.27;50.31;101026.00;5047705;28;51256;-73
2021/09/08 03:54:02;;;;;;;;;18.67;15.00;;;;;21.26;49.93;101023.38;5049120;28;55831;-72
2021/09/08 03:56:27;;;;;;;;;14.00;14.00;;;;;21.26;49.25;101026.06;5043722;28;54132;-73
2021/09/08 03:58:53;;;;;;;;;21.00;17.67;;;;;21.25;49.68;101030.50;5049284;28;53504;-73
2021/09/08 04:01:18;;;;;;;;;15.00;15.00;;;;;21.22;49.76;101019.00;5054328;28;47245;-73
2021/09/08 04:03:46;;;;;;;;;16.00;16.00;;;;;21.20;50.13;101021.75;5039734;28;47567;-74
2021/09/08 04:06:12;;;;;;;;;22.00;15.33;;;;;21.17;50.11;101022.69;5047528;28;45610;-72
2021/09/08 04:08:37;;;;;;;;;20.00;16.67;;;;;21.11;50.20;101013.97;5050062;28;52750;-73
2021/09/08 04:11:02;;;;;;;;;18.00;16.00;;;;;21.11;50.64;101014.84;5051646;28;53271;-73
2021/09/08 04:13:28;;;;;;;;;19.33;18.00;;;;;21.09;50.86;101013.09;5051273;28;57913;-72
2021/09/08 04:15:53;;;;;;;;;18.33;16.00;;;;;21.07;51.37;101007.78;5053785;28;57642;-73
2021/09/08 04:18:18;;;;;;;;;20.67;15.67;;;;;21.06;50.59;101006.03;5058175;28;50727;-74
2021/09/08 04:20:44;;;;;;;;;19.00;16.67;;;;;21.05;50.96;101008.78;5053861;28;45485;-72
2021/09/08 04:23:09;;;;;;;;;18.33;14.67;;;;;21.03;50.86;101013.28;5050942;28;59091;-73
2021/09/08 04:25:35;;;;;;;;;16.00;14.67;;;;;21.01;50.53;101010.66;5050989;28;57079;-73
2021/09/08 04:28:00;;;;;;;;;21.00;18.33;;;;;20.98;51.35;101004.47;5050658;28;51940;-72
2021/09/08 04:30:25;;;;;;;;;21.67;17.67;;;;;20.93;51.81;101000.16;5055571;28;45330;-72
2021/09/08 04:32:51;;;;;;;;;21.67;17.00;;;;;20.91;51.07;100993.94;5056275;28;61150;-73
2021/09/08 04:35:16;;;;;;;;;21.00;15.33;;;;;20.90;51.88;101002.91;5054054;28;57281;-73
2021/09/08 04:37:41;;;;;;;;;18.33;15.67;;;;;20.87;52.21;101008.34;5053288;28;56629;-74
2021/09/08 04:40:07;;;;;;;;;21.67;15.67;;;;;20.85;52.27;101009.34;5053419;28;45580;-73
2021/09/08 04:42:33;;;;;;;;;20.00;17.33;;;;;20.79;52.16;101010.41;5053343;28;45618;-72
2021/09/08 04:44:58;;;;;;;;;19.33;15.33;;;;;20.79;52.45;101005.03;5054457;28;45429;-72
2021/09/08 04:47:24;;;;;;;;;19.67;14.67;;;;;20.77;52.53;101000.59;5052063;28;46120;-72
2021/09/08 04:49:49;;;;;;;;;17.00;16.33;;;;;20.74;52.25;101009.66;5054450;28;46632;-73
2021/09/08 04:52:15;;;;;;;;;18.33;15.67;;;;;20.71;52.29;101004.34;5053229;28;58431;-73
2021/09/08 04:54:41;;;;;;;;;20.00;16.33;;;;;20.66;52.99;101007.16;5050827;28;45530;-73
2021/09/08 04:57:06;;;;;;;;;19.00;18.67;;;;;20.64;52.35;101003.66;5057265;28;45474;-72
2021/09/08 04:59:31;;;;;;;;;21.67;19.33;;;;;20.61;53.23;101001.06;5049468;28;52019;-74
2021/09/08 05:01:57;;;;;;;;;21.67;20.00;;;;;20.60;52.90;101001.09;5054385;28;46293;-72
2021/09/08 05:04:22;;;;;;;;;15.67;15.67;;;;;20.57;53.44;101001.19;5051397;28;55559;-73
2021/09/08 05:06:47;;;;;;;;;19.67;17.33;;;;;20.55;53.62;101005.69;5052677;28;48706;-73
2021/09/08 05:09:13;;;;;;;;;25.67;19.33;;;;;20.53;53.38;101005.75;5055090;28;51836;-73
2021/09/08 05:11:38;;;;;;;;;21.67;18.33;;;;;20.50;54.17;100995.09;5050161;28;61056;-73
2021/09/08 05:14:04;;;;;;;;;19.67;17.33;;;;;20.50;53.18;100994.22;5050724;28;45478;-73
2021/09/08 05:16:30;;;;;;;;;25.00;19.33;;;;;20.45;53.20;100994.31;5051251;28;45480;-74
2021/09/08 05:18:55;;;;;;;;;21.33;18.33;;;;;20.48;53.29;101004.13;5043025;28;45556;-72
2021/09/08 05:21:20;;;;;;;;;17.67;17.67;;;;;20.46;53.96;101004.16;5045141;28;59777;-72
2021/09/08 05:23:46;;;;;;;;;24.33;19.33;;;;;20.46;54.01;100997.91;5046845;28;58485;-73
2021/09/08 05:26:11;;;;;;;;;20.00;18.33;;;;;20.41;53.96;100995.34;5049229;28;45489;-73
2021/09/08 05:28:37;;;;;;;;;20.33;18.33;;;;;20.42;53.69;100997.09;5043106;28;48754;-72
2021/09/08 05:31:02;;;;;;;;;19.33;18.67;;;;;20.46;53.88;101000.56;5047715;28;46879;-73
2021/09/08 05:33:28;;;;;;;;;24.67;20.33;;;;;20.46;53.51;100997.91;5049186;28;45442;-72
2021/09/08 05:35:53;;;;;;;;;20.00;19.33;;;;;20.47;53.86;101007.72;5043285;28;45923;-73
2021/09/08 05:38:20;;;;;;;;;19.00;19.00;;;;;20.41;53.71;100987.28;5041171;28;46842;-72
2021/09/08 05:40:46;;;;;;;;;18.67;17.00;;;;;20.47;54.43;100994.31;5051664;28;47418;-72
2021/09/08 05:43:12;;;;;;;;;19.00;19.00;;;;;20.47;54.13;100991.63;5049243;28;45484;-72
2021/09/08 05:45:37;;;;;;;;;21.00;17.33;;;;;20.46;55.09;100988.06;5045003;28;53265;-73
2021/09/08 05:48:03;;;;;;;;;27.33;25.67;;;;;20.46;54.74;100990.75;5049601;28;45386;-73
2021/09/08 05:50:28;;;;;;;;;22.33;20.33;;;;;20.47;54.16;100991.63;5043230;28;46703;-74
2021/09/08 05:52:54;;;;;;;;;21.67;19.67;;;;;20.47;54.81;100988.94;5038475;28;45347;-73
2021/09/08 05:55:19;;;;;;;;;20.00;17.67;;;;;20.46;54.39;100989.84;5039554;28;45526;-74
2021/09/08 05:57:45;;;;;;;;;20.00;18.67;;;;;20.45;54.81;100994.31;5039485;28;45533;-76
2021/09/08 06:00:11;;;;;;;;;23.33;20.00;;;;;20.47;54.78;100994.31;5043479;28;60334;-75
2021/09/08 06:02:36;;;;;;;;;21.33;19.00;;;;;20.47;54.37;100997.00;5043100;28;45472;-73
2021/09/08 06:05:02;;;;;;;;;19.00;19.00;;;;;20.49;54.83;100989.78;5041063;28;52630;-73
2021/09/08 06:07:27;;;;;;;;;22.00;20.33;;;;;20.49;54.83;100985.28;5044896;28;45608;-73
2021/09/08 06:09:53;;;;;;;;;23.00;19.33;;;;;20.52;55.81;100993.28;5053267;28;47156;-72
2021/09/08 06:12:18;;;;;;;;;23.00;21.33;;;;;20.54;54.54;100987.84;5050380;28;45558;-73
2021/09/08 06:14:43;;;;;;;;;19.00;17.67;;;;;20.55;54.21;100985.13;5047219;28;45554;-75
2021/09/08 06:17:09;;;;;;;;;24.00;22.00;;;;;20.58;54.36;100990.41;5044984;28;45512;-73
2021/09/08 06:19:35;;;;;;;;;24.00;20.00;;;;;20.60;54.89;100988.56;5041035;28;45836;-73
2021/09/08 06:22:01;;;;;;;;;25.67;20.33;;;;;20.63;54.96;100982.25;5046811;28;45555;-73
2021/09/08 06:24:27;;;;;;;;;28.00;22.33;;;;;20.67;54.54;100991.97;5045607;28;45583;-75
2021/09/08 06:26:52;;;;;;;;;24.00;20.00;;;;;20.72;54.55;100990.03;5051867;28;45477;-73
2021/09/08 06:29:18;;;;;;;;;23.33;22.67;;;;;20.75;54.67;100992.63;5054030;28;59148;-72
2021/09/08 06:31:43;;;;;;;;;23.33;21.00;;;;;20.77;54.84;100993.44;5049966;28;45414;-72
2021/09/08 06:34:09;;;;;;;;;25.33;23.00;;;;;20.81;54.25;100986.19;5046101;28;45638;-74
2021/09/08 06:36:34;;;;;;;;;22.67;22.67;;;;;20.83;54.42;100985.25;5052313;28;45455;-73
2021/09/08 06:39:00;;;;;;;;;34.00;26.67;;;;;20.87;54.54;100983.31;5048586;22;45461;-74
2021/09/08 06:41:25;;;;;;;;;33.33;23.00;;;;;20.90;54.73;100978.75;5031978;28;55616;-74
2021/09/08 06:43:51;;;;;;;;;36.67;23.33;;;;;20.93;54.53;100967.94;5029536;28;51413;-74
2021/09/08 06:46:16;;;;;;;;;33.67;23.67;;;;;20.96;54.79;100968.75;5034008;28;45827;-75
2021/09/08 06:48:42;;;;;;;;;29.00;21.33;;;;;21.00;54.39;100970.44;5035375;28;47543;-75
2021/09/08 06:51:08;;;;;;;;;21.33;20.33;;;;;21.01;54.53;100965.00;5034903;28;45390;-75
2021/09/08 06:53:33;;;;;;;;;28.67;22.00;;;;;21.03;55.14;100967.66;5037645;28;45457;-77
2021/09/08 06:55:58;;;;;;;;;25.33;22.67;;;;;21.08;54.46;100971.06;5036574;28;45561;-75
2021/09/08 06:58:24;;;;;;;;;28.00;22.33;;;;;21.12;54.45;100962.88;5035033;28;45647;-74
2021/09/08 07:00:52;;;;;;;;;21.33;19.67;;;;;21.15;54.68;100965.50;5035726;28;55782;-76
2021/09/08 07:03:18;;;;;;;;;23.00;18.33;;;;;21.19;54.30;100955.50;5035982;28;45602;-76
2021/09/08 07:05:43;;;;;;;;;23.00;19.67;;;;;21.24;55.10;100958.06;5031038;28;53911;-72
2021/09/08 07:08:11;;;;;;;;;28.33;21.00;;;;;21.24;54.77;100950.88;5033566;28;59192;-74
2021/09/08 07:10:37;;;;;;;;;24.67;19.67;;;;;21.30;54.60;100956.09;5034281;28;45589;-73
2021/09/08 07:13:02;;;;;;;;;21.33;20.00;;;;;21.32;54.08;100951.56;5027873;28;45547;-72
2021/09/08 07:15:28;;;;;;;;;20.00;19.67;;;;;21.38;54.50;100950.50;5031748;28;48723;-73
2021/09/08 07:17:53;;;;;;;;;20.67;18.00;;;;;21.39;54.44;100953.13;5028365;28;46865;-73
2021/09/08 07:20:20;;;;;;;;;20.67;20.33;;;;;21.44;54.20;100955.66;5033819;28;45624;-73
2021/09/08 07:22:45;;;;;;;;;19.67;17.67;;;;;21.49;54.36;100948.34;5032999;28;45260;-73
2021/09/08 07:25:11;;;;;;;;;18.67;18.00;;;;;21.51;54.38;100949.16;5029328;28;45609;-75
2021/09/08 07:27:36;;;;;;;;;24.00;20.33;;;;;21.49;54.21;100942.09;5032896;28;57443;-72
2021/09/08 07:30:02;;;;;;;;;18.33;16.67;;;;;21.57;53.86;100948.97;5033526;28;57103;-74
2021/09/08 07:32:27;;;;;;;;;27.67;26.67;;;;;21.62;53.73;100948.81;5031562;28;45515;-74
2021/09/08 07:34:57;;;;;;;;;20.00;16.00;;;;;21.65;53.87;100946.91;5036522;28;45728;-79
2021/09/08 07:37:23;;;;;;;;;22.67;19.00;;;;;21.63;52.86;100934.47;5033494;28;47306;-75
2021/09/08 07:39:48;;;;;;;;;17.33;17.33;;;;;21.73;53.40;100937.69;5125713;22;45626;-78
2021/09/08 07:42:14;;;;;;;;;21.67;17.33;;;;;21.76;52.80;100938.47;5031039;22;51439;-76
2021/09/08 07:44:41;;;;;;;;;18.00;18.00;;;;;21.80;53.44;100941.97;5043592;28;46626;-78
2021/09/08 07:47:07;;;;;;;;;19.00;17.00;;;;;21.84;53.39;100939.13;5053486;28;47261;-75
2021/09/08 07:49:32;;;;;;;;;20.67;19.67;;;;;21.88;53.00;100932.69;5049605;28;52184;-74
2021/09/08 07:51:58;;;;;;;;;25.67;20.33;;;;;21.88;53.03;100930.00;5054444;28;45427;-78
2021/09/08 07:54:23;;;;;;;;;24.67;19.00;;;;;21.95;53.41;100931.56;5051487;28;51480;-77
2021/09/08 07:56:48;;;;;;;;;20.33;18.00;;;;;22.00;53.14;100934.09;5051943;28;45495;-77
2021/09/08 07:59:14;;;;;;;;;21.33;16.67;;;;;22.05;53.44;100936.59;5054001;28;45591;-72
2021/09/08 08:01:39;;;;;;;;;21.00;19.33;;;;;22.11;53.06;100936.44;5052919;28;54522;-74
2021/09/08 08:04:05;;;;;;;;;20.33;17.67;;;;;22.15;52.83;100932.69;5054477;28;45375;-73
2021/09/08 08:06:30;;;;;;;;;18.33;16.33;;;;;22.19;52.56;100927.16;5055604;28;45638;-75
2021/09/08 08:08:55;;;;;;;;;21.00;18.67;;;;;22.23;52.54;100928.81;5054619;28;45539;-73
2021/09/08 08:11:21;;;;;;;;;22.00;17.67;;;;;22.29;52.70;100922.31;5060241;28;54123;-76
2021/09/08 08:13:47;;;;;;;;;18.67;16.67;;;;;22.33;52.82;100929.38;5054959;27;45538;-74
2021/09/08 08:16:16;;;;;;;;;21.67;18.33;;;;;22.36;52.82;100931.91;5056085;28;47002;-79
2021/09/08 08:18:42;;;;;;;;;21.33;20.00;;;;;22.41;52.47;100929.06;5056743;28;45350;-75
2021/09/08 08:21:07;;;;;;;;;21.33;17.33;;;;;22.46;52.10;100927.97;5051602;28;45419;-72
2021/09/08 08:23:32;;;;;;;;;18.67;18.67;;;;;22.50;53.19;100923.34;5054516;28;49524;-72
2021/09/08 08:25:58;;;;;;;;;19.33;18.67;;;;;22.55;52.27;100936.66;5054078;28;57379;-72
2021/09/08 08:28:23;;;;;;;;;21.00;19.00;;;;;22.60;52.69;100935.53;5052803;28;57998;-72
2021/09/08 08:30:49;;;;;;;;;21.00;19.67;;;;;22.64;52.40;100925.56;5057265;28;45480;-72
2021/09/08 08:33:14;;;;;;;;;18.33;17.67;;;;;22.68;52.77;100917.28;5056747;28;45319;-72
2021/09/08 08:35:39;;;;;;;;;22.00;19.00;;;;;22.71;52.34;100916.31;5054046;28;57233;-71
2021/09/08 08:38:05;;;;;;;;;21.33;18.00;;;;;22.77;52.26;100920.56;5056514;28;45726;-72
2021/09/08 08:40:31;;;;;;;;;20.67;17.00;;;;;22.81;51.71;100928.47;5056957;28;45867;-73
2021/09/08 08:42:57;;;;;;;;;19.67;17.33;;;;;22.86;51.98;100923.78;5054560;28;45511;-72
2021/09/08 08:45:22;;;;;;;;;19.67;17.33;;;;;22.88;52.03;100916.56;5053601;28;46466;-72
2021/09/08 08:47:48;;;;;;;;;19.33;16.67;;;;;22.89;51.79;100902.16;5051526;28;54333;-72
2021/09/08 08:50:15;;;;;;;;;20.33;20.00;;;;;22.96;51.69;100917.16;5052036;28;45413;-71
2021/09/08 08:52:41;;;;;;;;;20.00;18.00;;;;;22.97;51.80;100901.88;5053399;28;45434;-72
2021/09/08 08:55:06;;;;;;;;;20.67;18.67;;;;;23.05;52.02;100910.50;5058287;28;47617;-71
2021/09/08 08:57:32;;;;;;;;;18.67;18.00;;;;;23.12;51.62;100911.16;5052602;28;45620;-73
2021/09/08 08:59:57;;;;;;;;;20.33;17.67;;;;;23.15;51.74;100903.81;5047352;28;54529;-72
2021/09/08 09:02:30;;;;;;;;;20.67;19.33;;;;;23.15;51.75;100889.47;5053759;28;49013;-72
2021/09/08 09:04:57;;;;;;;;;19.33;17.67;;;;;23.23;51.48;100900.84;5054624;28;47626;-72
2021/09/08 09:07:33;;;;;;;;;19.33;17.33;;;;;23.27;52.00;100891.66;5057199;28;45397;-77
2021/09/08 09:10:07;;;;;;;;;17.33;16.67;;;;;23.33;51.46;100893.22;5055828;28;45425;-72
2021/09/08 09:12:34;;;;;;;;;22.33;20.67;;;;;23.37;51.38;100893.03;5057246;28;45385;-72
2021/09/08 09:15:03;;;;;;;;;20.33;19.00;;;;;23.42;51.60;100891.03;5054407;28;47549;-74
2021/09/08 09:17:29;;;;;;;;;20.00;16.00;;;;;23.47;51.04;100880.94;5055082;28;45523;-73
2021/09/08 09:19:55;;;;;;;;;20.33;18.33;;;;;23.51;51.52;100881.72;5056059;28;45477;-74
2021/09/08 09:22:22;;;;;;;;;17.67;17.33;;;;;23.52;51.46;100868.16;5057243;28;46777;-74
2021/09/08 09:24:53;;;;;;;;;15.67;15.00;;;;;23.56;51.88;100868.03;5025796;28;47646;-72
2021/09/08 09:27:19;;;;;;;;;19.33;16.00;;;;;23.63;51.46;100881.22;5056953;28;45417;-73
2021/09/08 09:29:45;;;;;;;;;17.67;16.33;;;;;23.68;51.61;100872.94;5060596;28;51425;-73
2021/09/08 09:32:13;;;;;;;;;16.33;14.33;;;;;23.71;51.16;100876.38;5057410;28;45504;-72
2021/09/08 09:34:40;;;;;;;;;14.67;14.00;;;;;23.76;51.27;100868.09;5058003;28;46697;-73
2021/09/08 09:37:05;;;;;;;;;16.67;15.67;;;;;23.81;51.51;100867.88;5057019;28;46165;-73
2021/09/08 09:39:32;;;;;;;;;17.00;15.33;;;;;23.86;51.51;100864.03;5057321;28;45421;-74
2021/09/08 09:42:05;;;;;;;;;18.67;16.33;;;;;23.90;51.21;100864.78;5057305;28;45334;-76
2021/09/08 09:44:33;;;;;;;;;22.67;17.33;;;;;23.95;51.30;100863.66;5052245;28;45443;-75
2021/09/08 09:47:01;;;;;;;;;17.00;17.00;;;;;24.00;51.33;100864.31;5054210;28;46480;-76
2021/09/08 09:49:34;;;;;;;;;16.67;15.67;;;;;24.04;51.16;100857.84;5053727;28;45460;-75
2021/09/08 09:52:04;;;;;;;;;21.33;20.67;;;;;24.09;50.86;100863.06;5062310;22;45438;-75
2021/09/08 09:54:29;;;;;;;;;18.00;15.67;;;;;24.14;51.11;100857.44;5011292;28;45785;-75
2021/09/08 09:56:55;;;;;;;;;14.33;14.33;;;;;24.19;51.38;100867.09;5019524;28;58253;-76
2021/09/08 09:59:21;;;;;;;;;14.67;14.67;;;;;24.23;51.19;100849.78;5021628;28;45797;-74
2021/09/08 10:01:49;;;;;;;;;19.00;16.67;;;;;24.28;50.92;100849.59;5013532;28;45963;-79
2021/09/08 10:04:15;;;;;;;;;16.67;14.67;;;;;24.28;51.27;100845.06;5145258;22;62511;-76
2021/09/08 10:06:40;;;;;;;;;19.00;17.33;;;;;24.40;51.35;100851.78;5036652;28;45498;-75
2021/09/08 10:09:06;;;;;;;;;18.00;17.00;;;;;24.49;50.96;100856.72;5022709;28;45828;-77
2021/09/08 10:11:36;;;;;;;;;19.67;18.33;;;;;24.56;50.78;100855.53;5019181;28;45543;-74
2021/09/08 10:14:13;;;;;;;;;26.33;18.00;;;;;24.65;50.91;100861.41;5069109;27;47282;-75
2021/09/08 10:16:38;;;;;;;;;14.67;14.67;;;;;24.69;51.01;100857.63;5067254;27;45607;-76
2021/09/08 10:19:07;;;;;;;;;22.00;18.67;;;;;24.75;50.64;100854.63;5034411;28;49057;-75
2021/09/08 10:21:34;;;;;;;;;21.33;16.00;;;;;24.79;50.98;100856.25;5035621;28;45350;-75
2021/09/08 10:24:01;;;;;;;;;17.33;17.33;;;;;24.83;50.33;100852.47;5034577;28;47356;-74
2021/09/08 10:26:30;;;;;;;;;16.00;15.00;;;;;24.85;50.62;100844.28;5037477;28;45405;-73
2021/09/08 10:29:07;;;;;;;;;17.00;16.33;;;;;24.90;50.59;100845.81;5036157;28;45560;-75
2021/09/08 10:31:34;;;;;;;;;19.00;16.33;;;;;24.93;50.54;100840.28;5036343;28;45779;-74
2021/09/08 10:34:00;;;;;;;;;21.00;17.00;;;;;24.97;50.84;100839.16;5069382;27;47032;-75
2021/09/08 10:36:25;;;;;;;;;25.00;19.00;;;;;24.99;50.25;100841.78;5035717;28;45462;-72
2021/09/08 10:39:10;;;;;;;;;15.33;14.00;;;;;25.02;50.59;100834.41;5044235;28;56766;-74
2021/09/08 10:41:37;;;;;;;;;18.00;18.00;;;;;25.06;50.20;100838.75;5038659;28;45358;-74
2021/09/08 10:44:02;;;;;;;;;15.67;15.33;;;;;25.08;50.25;100835.94;5033936;28;46587;-77
2021/09/08 10:46:47;;;;;;;;;17.67;16.00;;;;;25.11;50.05;100826.84;5032247;28;45548;-75
2021/09/08 10:49:37;;;;;;;;;22.00;18.67;;;;;25.15;49.75;100823.91;5046163;28;45362;-76
2021/09/08 10:52:06;;;;;;;;;16.33;16.33;;;;;25.19;50.40;100822.78;5044334;28;45612;-75
2021/09/08 10:54:32;;;;;;;;;19.00;19.00;;;;;25.19;49.84;100817.38;5039337;28;47516;-75
2021/09/08 10:56:58;;;;;;;;;19.33;18.33;;;;;25.23;50.02;100816.28;5042373;28;45496;-74
2021/09/08 10:59:23;;;;;;;;;18.33;16.67;;;;;25.26;50.46;100809.84;5042746;28;45572;-76
2021/09/08 11:01:54;;;;;;;;;17.67;17.67;;;;;25.30;49.85;100811.44;5076394;27;45582;-75
2021/09/08 11:04:20;;;;;;;;;18.33;18.33;;;;;25.36;50.04;100816.56;5043289;28;47471;-76